sensor_id;sensor_type;location;lat;lon;timestamp;pressure;altitude;pressure_sealevel;temperature;humidity
81033;BME280;70514;52.478;6.102;2024-03-23T00:55:44;101092.38;;;10.57;99.32
81033;BME280;70514;52.478;6.102;2024-03-23T00:58:11;101094.03;;;9.92;99.86
81033;BME280;70514;52.478;6.102;2024-03-23T01:00:37;101099.16;;;9.89;100.00
81033;BME280;70514;52.478;6.102;2024-03-23T01:03:04;101091.88;;;10.18;100.00
81033;BME280;70514;52.478;6.102;2024-03-23T01:05:30;101085.97;;;10.27;100.00
81033;BME280;70514;52.478;6.102;2024-03-23T01:07:57;101088.34;;;10.13;100.00
81033;BME280;70514;52.478;6.102;2024-03-23T01:10:23;101079.25;;;10.38;100.00
81033;BME280;70514;52.478;6.102;2024-03-23T01:12:49;101079.41;;;10.48;100.00
81033;BME280;70514;52.478;6.102;2024-03-23T01:15:16;101078.72;;;10.61;100.00
81033;BME280;70514;52.478;6.102;2024-03-23T01:17:42;101075.53;;;10.84;99.56
81033;BME280;70514;52.478;6.102;2024-03-23T01:20:09;101068.56;;;10.72;99.67
81033;BME280;70514;52.478;6.102;2024-03-23T01:22:35;101066.63;;;10.57;99.14
81033;BME280;70514;52.478;6.102;2024-03-23T01:25:01;101068.75;;;10.90;98.91
81033;BME280;70514;52.478;6.102;2024-03-23T01:27:28;101054.09;;;10.85;98.33
81033;BME280;70514;52.478;6.102;2024-03-23T01:29:54;101061.75;;;10.80;98.80
81033;BME280;70514;52.478;6.102;2024-03-23T01:32:21;101051.94;;;10.46;99.27
81033;BME280;70514;52.478;6.102;2024-03-23T01:34:47;101059.34;;;10.23;99.63
81033;BME280;70514;52.478;6.102;2024-03-23T01:37:14;101061.81;;;10.15;100.00
81033;BME280;70514;52.478;6.102;2024-03-23T01:39:40;101057.22;;;10.59;100.00
81033;BME280;70514;52.478;6.102;2024-03-23T01:42:07;101050.59;;;10.12;100.00
81033;BME280;70514;52.478;6.102;2024-03-23T01:44:33;101047.00;;;10.01;100.00
81033;BME280;70514;52.478;6.102;2024-03-23T01:46:59;101040.44;;;10.21;100.00
81033;BME280;70514;52.478;6.102;2024-03-23T01:49:26;101034.22;;;10.07;100.00
81033;BME280;70514;52.478;6.102;2024-03-23T01:51:52;101044.19;;;10.44;99.07
81033;BME280;70514;52.478;6.102;2024-03-23T01:54:19;101028.66;;;10.38;99.61
81033;BME280;70514;52.478;6.102;2024-03-23T01:56:45;101020.97;;;10.40;100.00
81033;BME280;70514;52.478;6.102;2024-03-23T01:59:12;101015.22;;;10.63;98.93
81033;BME280;70514;52.478;6.102;2024-03-23T02:01:39;101014.75;;;10.24;99.17
81033;BME280;70514;52.478;6.102;2024-03-23T02:04:05;101014.28;;;9.89;99.94
81033;BME280;70514;52.478;6.102;2024-03-23T02:06:31;101017.09;;;9.50;100.00
81033;BME280;70514;52.478;6.102;2024-03-23T02:08:58;101009.88;;;9.26;100.00
81033;BME280;70514;52.478;6.102;2024-03-23T02:11:24;101007.13;;;9.16;100.00
81033;BME280;70514;52.478;6.102;2024-03-23T02:13:51;101001.53;;;9.41;100.00
81033;BME280;70514;52.478;6.102;2024-03-23T02:16:17;100999.59;;;9.28;100.00
81033;BME280;70514;52.478;6.102;2024-03-23T02:18:44;100999.06;;;9.49;100.00
81033;BME280;70514;52.478;6.102;2024-03-23T02:21:10;101009.22;;;9.39;100.00
81033;BME280;70514;52.478;6.102;2024-03-23T02:23:36;101004.38;;;9.58;100.00
81033;BME280;70514;52.478;6.102;2024-03-23T02:26:03;100994.53;;;9.90;100.00
81033;BME280;70514;52.478;6.102;2024-03-23T02:28:29;100989.72;;;10.14;100.00
81033;BME280;70514;52.478;6.102;2024-03-23T02:30:56;100984.97;;;10.44;100.00
81033;BME280;70514;52.478;6.102;2024-03-23T02:33:22;100992.66;;;10.41;99.05
81033;BME280;70514;52.478;6.102;2024-03-23T02:35:50;100994.31;;;10.36;99.65
81033;BME280;70514;52.478;6.102;2024-03-23T02:38:17;100984.28;;;10.60;98.08
81033;BME280;70514;52.478;6.102;2024-03-23T02:40:44;100979.16;;;10.63;97.47
81033;BME280;70514;52.478;6.102;2024-03-23T02:43:10;100984.16;;;10.48;97.38
81033;BME280;70514;52.478;6.102;2024-03-23T02:45:37;100978.34;;;9.97;99.37
81033;BME280;70514;52.478;6.102;2024-03-23T02:48:03;100975.78;;;9.97;98.90
81033;BME280;70514;52.478;6.102;2024-03-23T02:50:30;100970.31;;;9.72;100.00
81033;BME280;70514;52.478;6.102;2024-03-23T02:52:56;100973.38;;;9.49;100.00
81033;BME280;70514;52.478;6.102;2024-03-23T02:55:23;100971.50;;;9.38;100.00
81033;BME280;70514;52.478;6.102;2024-03-23T02:57:49;100972.19;;;9.84;100.00
81033;BME280;70514;52.478;6.102;2024-03-23T03:00:16;100968.81;;;9.88;100.00
81033;BME280;70514;52.478;6.102;2024-03-23T03:02:42;100962.31;;;10.16;100.00
81033;BME280;70514;52.478;6.102;2024-03-23T03:05:09;100969.25;;;9.60;99.12
81033;BME280;70514;52.478;6.102;2024-03-23T03:07:35;100963.56;;;9.80;100.00
81033;BME280;70514;52.478;6.102;2024-03-23T03:10:04;100975.03;;;9.45;100.00
81033;BME280;70514;52.478;6.102;2024-03-23T03:12:32;100969.91;;;8.92;100.00
81033;BME280;70514;52.478;6.102;2024-03-23T03:14:59;100964.47;;;8.76;100.00
81033;BME280;70514;52.478;6.102;2024-03-23T03:17:25;100964.06;;;8.53;100.00
81033;BME280;70514;52.478;6.102;2024-03-23T03:19:52;100966.34;;;8.39;100.00
81033;BME280;70514;52.478;6.102;2024-03-23T03:22:22;100958.75;;;8.02;100.00
81033;BME280;70514;52.478;6.102;2024-03-23T03:24:48;100956.53;;;7.78;100.00
81033;BME280;70514;52.478;6.102;2024-03-23T03:27:15;100959.00;;;7.36;100.00
81033;BME280;70514;52.478;6.102;2024-03-23T03:29:41;100973.53;;;7.37;100.00
81033;BME280;70514;52.478;6.102;2024-03-23T03:32:07;100965.03;;;8.16;100.00
81033;BME280;70514;52.478;6.102;2024-03-23T03:34:34;100968.41;;;8.57;100.00
81033;BME280;70514;52.478;6.102;2024-03-23T03:37:01;100962.09;;;8.86;100.00
81033;BME280;70514;52.478;6.102;2024-03-23T03:39:27;100964.13;;;9.58;100.00
81033;BME280;70514;52.478;6.102;2024-03-23T03:41:54;100957.53;;;9.78;100.00
81033;BME280;70514;52.478;6.102;2024-03-23T03:44:20;100959.66;;;10.11;97.90
81033;BME280;70514;52.478;6.102;2024-03-23T03:46:46;100956.00;;;9.93;100.00
81033;BME280;70514;52.478;6.102;2024-03-23T03:49:13;100956.28;;;10.14;99.03
81033;BME280;70514;52.478;6.102;2024-03-23T03:51:39;100947.66;;;10.12;98.41
81033;BME280;70514;52.478;6.102;2024-03-23T03:54:06;100949.81;;;10.46;97.94
81033;BME280;70514;52.478;6.102;2024-03-23T03:56:32;100948.22;;;9.87;93.29
81033;BME280;70514;52.478;6.102;2024-03-23T03:58:59;100947.25;;;9.80;99.12
81033;BME280;70514;52.478;6.102;2024-03-23T04:01:25;100937.47;;;9.55;99.75
81033;BME280;70514;52.478;6.102;2024-03-23T04:03:51;100924.53;;;9.49;100.00
81033;BME280;70514;52.478;6.102;2024-03-23T04:06:18;100937.72;;;9.14;100.00
81033;BME280;70514;52.478;6.102;2024-03-23T04:08:45;100930.81;;;9.67;100.00
81033;BME280;70514;52.478;6.102;2024-03-23T04:11:11;100931.97;;;9.91;98.52
81033;BME280;70514;52.478;6.102;2024-03-23T04:13:38;100933.19;;;9.52;100.00
81033;BME280;70514;52.478;6.102;2024-03-23T04:16:04;100927.75;;;9.94;99.94
81033;BME280;70514;52.478;6.102;2024-03-23T04:18:31;100931.59;;;9.62;99.41
81033;BME280;70514;52.478;6.102;2024-03-23T04:20:57;100930.91;;;9.73;100.00
81033;BME280;70514;52.478;6.102;2024-03-23T04:23:24;100928.50;;;9.87;100.00
81033;BME280;70514;52.478;6.102;2024-03-23T04:25:50;100921.72;;;9.95;99.26
81033;BME280;70514;52.478;6.102;2024-03-23T04:28:18;100921.75;;;9.97;98.54
81033;BME280;70514;52.478;6.102;2024-03-23T04:30:45;100926.53;;;9.69;99.79
81033;BME280;70514;52.478;6.102;2024-03-23T04:33:11;100918.88;;;9.72;98.15
81033;BME280;70514;52.478;6.102;2024-03-23T04:35:38;100916.59;;;9.94;98.87
81033;BME280;70514;52.478;6.102;2024-03-23T04:38:04;100916.50;;;9.88;98.36
81033;BME280;70514;52.478;6.102;2024-03-23T04:40:30;100918.16;;;9.82;99.06
81033;BME280;70514;52.478;6.102;2024-03-23T04:42:57;100920.56;;;9.70;99.84
81033;BME280;70514;52.478;6.102;2024-03-23T04:45:23;100909.88;;;10.05;98.12
81033;BME280;70514;52.478;6.102;2024-03-23T04:47:50;100907.06;;;9.87;97.73
81033;BME280;70514;52.478;6.102;2024-03-23T04:50:16;100909.72;;;9.96;97.87
81033;BME280;70514;52.478;6.102;2024-03-23T04:52:44;100902.94;;;9.99;97.19
81033;BME280;70514;52.478;6.102;2024-03-23T04:55:10;100906.63;;;10.21;97.26
81033;BME280;70514;52.478;6.102;2024-03-23T04:57:38;100905.16;;;10.44;95.94
81033;BME280;70514;52.478;6.102;2024-03-23T05:00:05;100908.63;;;10.46;95.89
81033;BME280;70514;52.478;6.102;2024-03-23T05:02:43;100901.97;;;10.73;94.71
81033;BME280;70514;52.478;6.102;2024-03-23T05:05:10;100904.16;;;10.29;95.42
81033;BME280;70514;52.478;6.102;2024-03-23T05:07:36;100905.72;;;10.16;95.79
81033;BME280;70514;52.478;6.102;2024-03-23T05:10:03;100904.91;;;10.21;96.69
81033;BME280;70514;52.478;6.102;2024-03-23T05:12:30;100898.25;;;9.69;96.02
81033;BME280;70514;52.478;6.102;2024-03-23T05:14:56;100905.81;;;9.59;98.68
81033;BME280;70514;52.478;6.102;2024-03-23T05:17:23;100902.53;;;9.67;98.83
81033;BME280;70514;52.478;6.102;2024-03-23T05:19:49;100900.91;;;9.74;98.53
81033;BME280;70514;52.478;6.102;2024-03-23T05:22:16;100900.41;;;10.04;97.72
81033;BME280;70514;52.478;6.102;2024-03-23T05:24:42;100899.72;;;10.17;95.66
81033;BME280;70514;52.478;6.102;2024-03-23T05:27:10;100896.03;;;9.97;97.82
81033;BME280;70514;52.478;6.102;2024-03-23T05:29:37;100907.91;;;9.86;96.57
81033;BME280;70514;52.478;6.102;2024-03-23T05:32:03;100898.25;;;10.40;95.97
81033;BME280;70514;52.478;6.102;2024-03-23T05:34:30;100898.81;;;10.13;96.46
81033;BME280;70514;52.478;6.102;2024-03-23T05:36:56;100894.78;;;10.37;95.43
81033;BME280;70514;52.478;6.102;2024-03-23T05:39:23;100892.34;;;10.52;95.24
81033;BME280;70514;52.478;6.102;2024-03-23T05:41:50;100888.75;;;10.33;95.77
81033;BME280;70514;52.478;6.102;2024-03-23T05:44:16;100885.19;;;10.19;96.02
81033;BME280;70514;52.478;6.102;2024-03-23T05:46:43;100897.25;;;10.28;95.63
81033;BME280;70514;52.478;6.102;2024-03-23T05:49:15;100902.94;;;10.01;96.90
81033;BME280;70514;52.478;6.102;2024-03-23T05:51:42;100896.09;;;10.03;96.55
81033;BME280;70514;52.478;6.102;2024-03-23T05:54:08;100890.03;;;9.98;96.63
81033;BME280;70514;52.478;6.102;2024-03-23T05:56:35;100895.38;;;9.45;97.12
81033;BME280;70514;52.478;6.102;2024-03-23T05:59:01;100898.44;;;9.20;97.45
81033;BME280;70514;52.478;6.102;2024-03-23T06:01:29;100902.38;;;9.57;98.88
81033;BME280;70514;52.478;6.102;2024-03-23T06:03:58;100896.88;;;9.94;98.31
81033;BME280;70514;52.478;6.102;2024-03-23T06:06:27;100899.91;;;9.64;98.12
81033;BME280;70514;52.478;6.102;2024-03-23T06:08:56;100901.34;;;9.44;93.97
81033;BME280;70514;52.478;6.102;2024-03-23T06:11:22;100899.63;;;9.45;99.42
81033;BME280;70514;52.478;6.102;2024-03-23T06:13:49;100903.09;;;10.13;96.52
81033;BME280;70514;52.478;6.102;2024-03-23T06:16:15;100893.38;;;9.91;96.37
81033;BME280;70514;52.478;6.102;2024-03-23T06:18:42;100900.94;;;9.77;97.86
81033;BME280;70514;52.478;6.102;2024-03-23T06:21:12;100907.38;;;10.12;96.03
81033;BME280;70514;52.478;6.102;2024-03-23T06:23:39;100902.66;;;10.53;94.60
81033;BME280;70514;52.478;6.102;2024-03-23T06:26:06;100901.91;;;10.60;92.94
81033;BME280;70514;52.478;6.102;2024-03-23T06:28:32;100900.13;;;10.58;93.77
81033;BME280;70514;52.478;6.102;2024-03-23T06:30:59;100903.50;;;10.52;93.93
81033;BME280;70514;52.478;6.102;2024-03-23T06:33:25;100903.56;;;10.55;93.77
81033;BME280;70514;52.478;6.102;2024-03-23T06:35:52;100914.03;;;10.74;92.91
81033;BME280;70514;52.478;6.102;2024-03-23T06:38:18;100913.91;;;10.63;93.49
81033;BME280;70514;52.478;6.102;2024-03-23T06:40:45;100914.16;;;10.89;92.28
81033;BME280;70514;52.478;6.102;2024-03-23T06:43:13;100908.91;;;10.78;92.47
81033;BME280;70514;52.478;6.102;2024-03-23T06:45:40;100910.88;;;11.09;91.16
81033;BME280;70514;52.478;6.102;2024-03-23T06:48:06;100900.75;;;11.32;89.46
81033;BME280;70514;52.478;6.102;2024-03-23T06:50:34;100897.38;;;11.44;88.98
81033;BME280;70514;52.478;6.102;2024-03-23T06:53:00;100899.78;;;11.21;89.83
81033;BME280;70514;52.478;6.102;2024-03-23T06:55:28;100902.94;;;10.84;90.47
81033;BME280;70514;52.478;6.102;2024-03-23T06:57:55;100903.53;;;10.54;91.60
81033;BME280;70514;52.478;6.102;2024-03-23T07:00:21;100897.59;;;10.62;92.65
81033;BME280;70514;52.478;6.102;2024-03-23T07:02:48;100896.91;;;10.77;92.08
81033;BME280;70514;52.478;6.102;2024-03-23T07:05:14;100894.28;;;10.74;92.59
81033;BME280;70514;52.478;6.102;2024-03-23T07:07:41;100895.72;;;10.45;93.39
81033;BME280;70514;52.478;6.102;2024-03-23T07:10:07;100898.50;;;10.64;88.79
81033;BME280;70514;52.478;6.102;2024-03-23T07:12:33;100904.72;;;10.06;93.53
81033;BME280;70514;52.478;6.102;2024-03-23T07:15:00;100900.00;;;10.41;92.80
81033;BME280;70514;52.478;6.102;2024-03-23T07:17:26;100908.56;;;9.71;93.30
81033;BME280;70514;52.478;6.102;2024-03-23T07:19:53;100904.97;;;9.00;94.66
81033;BME280;70514;52.478;6.102;2024-03-23T07:22:19;100903.63;;;9.86;95.60
81033;BME280;70514;52.478;6.102;2024-03-23T07:24:46;100892.19;;;9.63;93.70
81033;BME280;70514;52.478;6.102;2024-03-23T07:27:12;100894.38;;;8.32;99.04
81033;BME280;70514;52.478;6.102;2024-03-23T07:29:39;100896.06;;;7.88;100.00
81033;BME280;70514;52.478;6.102;2024-03-23T07:32:05;100895.84;;;6.99;100.00
81033;BME280;70514;52.478;6.102;2024-03-23T07:34:32;100900.72;;;6.90;100.00
81033;BME280;70514;52.478;6.102;2024-03-23T07:36:58;100901.88;;;6.68;100.00
81033;BME280;70514;52.478;6.102;2024-03-23T07:39:24;100899.84;;;7.25;100.00
81033;BME280;70514;52.478;6.102;2024-03-23T07:41:53;100897.59;;;8.68;100.00
81033;BME280;70514;52.478;6.102;2024-03-23T07:44:20;100887.94;;;9.66;100.00
81033;BME280;70514;52.478;6.102;2024-03-23T07:46:46;100892.78;;;10.10;100.00
81033;BME280;70514;52.478;6.102;2024-03-23T07:49:13;100894.94;;;10.50;98.20
81033;BME280;70514;52.478;6.102;2024-03-23T07:51:39;100895.78;;;10.49;96.58
81033;BME280;70514;52.478;6.102;2024-03-23T07:54:06;100888.94;;;11.71;90.61
81033;BME280;70514;52.478;6.102;2024-03-23T07:56:33;100891.06;;;11.04;92.15
81033;BME280;70514;52.478;6.102;2024-03-23T07:58:59;100888.69;;;11.28;90.40
81033;BME280;70514;52.478;6.102;2024-03-23T08:01:26;100884.59;;;11.68;88.75
81033;BME280;70514;52.478;6.102;2024-03-23T08:03:52;100881.81;;;11.30;90.50
81033;BME280;70514;52.478;6.102;2024-03-23T08:06:19;100908.06;;;9.98;88.59
81033;BME280;70514;52.478;6.102;2024-03-23T08:08:47;100911.16;;;9.12;91.42
81033;BME280;70514;52.478;6.102;2024-03-23T08:11:15;100904.59;;;9.96;97.43
81033;BME280;70514;52.478;6.102;2024-03-23T08:13:41;100907.75;;;10.44;94.70
81033;BME280;70514;52.478;6.102;2024-03-23T08:16:08;100900.47;;;10.96;91.23
81033;BME280;70514;52.478;6.102;2024-03-23T08:18:39;100902.16;;;10.88;91.30
81033;BME280;70514;52.478;6.102;2024-03-23T08:21:06;100902.47;;;10.32;91.07
81033;BME280;70514;52.478;6.102;2024-03-23T08:23:33;100907.66;;;9.69;95.59
81033;BME280;70514;52.478;6.102;2024-03-23T08:26:02;100906.94;;;10.53;93.89
81033;BME280;70514;52.478;6.102;2024-03-23T08:28:29;100910.69;;;10.82;86.63
81033;BME280;70514;52.478;6.102;2024-03-23T08:30:56;100910.00;;;11.09;88.44
81033;BME280;70514;52.478;6.102;2024-03-23T08:33:23;100902.66;;;9.18;85.84
81033;BME280;70514;52.478;6.102;2024-03-23T08:35:59;100898.75;;;6.46;95.88
81033;BME280;70514;52.478;6.102;2024-03-23T08:38:26;100899.25;;;5.73;100.00
81033;BME280;70514;52.478;6.102;2024-03-23T08:40:59;100896.59;;;5.98;100.00
81033;BME280;70514;52.478;6.102;2024-03-23T08:43:26;100902.50;;;5.95;100.00
81033;BME280;70514;52.478;6.102;2024-03-23T08:45:53;100909.19;;;7.61;100.00
81033;BME280;70514;52.478;6.102;2024-03-23T08:48:19;100905.09;;;8.56;100.00
81033;BME280;70514;52.478;6.102;2024-03-23T08:53:28;100898.25;;;9.09;100.00
81033;BME280;70514;52.478;6.102;2024-03-23T08:55:55;100900.63;;;8.95;100.00
81033;BME280;70514;52.478;6.102;2024-03-23T08:58:23;100894.59;;;8.93;100.00
81033;BME280;70514;52.478;6.102;2024-03-23T09:00:50;100891.69;;;7.82;96.76
81033;BME280;70514;52.478;6.102;2024-03-23T09:03:17;100902.63;;;8.62;100.00
81033;BME280;70514;52.478;6.102;2024-03-23T09:05:43;100887.97;;;8.57;100.00
81033;BME280;70514;52.478;6.102;2024-03-23T09:08:10;100883.28;;;8.82;100.00
81033;BME280;70514;52.478;6.102;2024-03-23T09:10:38;100874.47;;;9.86;99.12
81033;BME280;70514;52.478;6.102;2024-03-23T09:13:05;100882.22;;;9.90;92.40
81033;BME280;70514;52.478;6.102;2024-03-23T09:15:33;100878.09;;;10.90;94.62
81033;BME280;70514;52.478;6.102;2024-03-23T09:18:00;100867.50;;;11.88;87.06
81033;BME280;70514;52.478;6.102;2024-03-23T09:20:27;100868.41;;;12.00;81.95
81033;BME280;70514;52.478;6.102;2024-03-23T09:22:53;100863.28;;;12.15;84.17
81033;BME280;70514;52.478;6.102;2024-03-23T09:25:19;100868.50;;;12.69;81.79
81033;BME280;70514;52.478;6.102;2024-03-23T09:27:46;100873.69;;;12.53;80.77
81033;BME280;70514;52.478;6.102;2024-03-23T09:30:13;100869.25;;;11.97;82.74
81033;BME280;70514;52.478;6.102;2024-03-23T09:32:42;100873.19;;;11.24;83.81
81033;BME280;70514;52.478;6.102;2024-03-23T09:35:08;100882.66;;;11.31;78.92
81033;BME280;70514;52.478;6.102;2024-03-23T09:37:34;100874.16;;;10.31;83.32
81033;BME280;70514;52.478;6.102;2024-03-23T09:40:01;100870.44;;;10.99;86.46
81033;BME280;70514;52.478;6.102;2024-03-23T09:42:29;100872.72;;;12.04;78.92
81033;BME280;70514;52.478;6.102;2024-03-23T09:44:56;100864.94;;;11.85;73.89
81033;BME280;70514;52.478;6.102;2024-03-23T09:47:23;100852.16;;;12.43;74.38
81033;BME280;70514;52.478;6.102;2024-03-23T09:49:51;100862.50;;;12.60;75.81
81033;BME280;70514;52.478;6.102;2024-03-23T09:52:17;100855.63;;;12.83;73.31
81033;BME280;70514;52.478;6.102;2024-03-23T09:54:44;100848.72;;;13.00;75.58
81033;BME280;70514;52.478;6.102;2024-03-23T09:57:11;100865.09;;;12.54;75.41
81033;BME280;70514;52.478;6.102;2024-03-23T09:59:37;100848.63;;;12.00;77.74
81033;BME280;70514;52.478;6.102;2024-03-23T10:02:04;100867.41;;;11.69;75.97
81033;BME280;70514;52.478;6.102;2024-03-23T10:04:37;100879.06;;;11.04;81.40
81033;BME280;70514;52.478;6.102;2024-03-23T10:07:10;100882.31;;;9.98;85.59
81033;BME280;70514;52.478;6.102;2024-03-23T10:09:37;100880.94;;;10.24;81.80
81033;BME280;70514;52.478;6.102;2024-03-23T10:12:08;100878.91;;;10.83;84.55
81033;BME280;70514;52.478;6.102;2024-03-23T10:14:35;100870.47;;;11.05;74.73
81033;BME280;70514;52.478;6.102;2024-03-23T10:17:18;100868.31;;;11.77;75.04
81033;BME280;70514;52.478;6.102;2024-03-23T10:19:46;100859.91;;;12.81;78.77
81033;BME280;70514;52.478;6.102;2024-03-23T10:24:45;100850.44;;;13.26;75.84
81033;BME280;70514;52.478;6.102;2024-03-23T10:27:15;100863.28;;;13.44;74.89
81033;BME280;70514;52.478;6.102;2024-03-23T10:29:42;100852.72;;;13.95;72.80
81033;BME280;70514;52.478;6.102;2024-03-23T10:32:11;100847.69;;;13.73;70.53
81033;BME280;70514;52.478;6.102;2024-03-23T10:34:38;100854.63;;;13.60;73.14
81033;BME280;70514;52.478;6.102;2024-03-23T10:37:05;100853.00;;;13.03;70.44
81033;BME280;70514;52.478;6.102;2024-03-23T10:39:36;100859.06;;;12.68;74.61
81033;BME280;70514;52.478;6.102;2024-03-23T10:42:03;100856.09;;;11.41;70.59
81033;BME280;70514;52.478;6.102;2024-03-23T10:44:30;100859.03;;;12.87;78.10
81033;BME280;70514;52.478;6.102;2024-03-23T10:46:58;100853.03;;;12.42;68.95
81033;BME280;70514;52.478;6.102;2024-03-23T10:52:05;100859.06;;;12.56;79.32
81033;BME280;70514;52.478;6.102;2024-03-23T10:54:32;100851.97;;;13.75;70.88
81033;BME280;70514;52.478;6.102;2024-03-23T10:57:03;100850.16;;;13.92;73.68
81033;BME280;70514;52.478;6.102;2024-03-23T10:59:31;100849.09;;;14.30;71.18
81033;BME280;70514;52.478;6.102;2024-03-23T11:01:58;100840.50;;;14.25;70.65
81033;BME280;70514;52.478;6.102;2024-03-23T11:04:35;100826.53;;;14.45;69.14
81033;BME280;70514;52.478;6.102;2024-03-23T11:07:02;100832.56;;;14.51;69.01
81033;BME280;70514;52.478;6.102;2024-03-23T11:11:54;100840.13;;;12.83;69.23
81033;BME280;70514;52.478;6.102;2024-03-23T11:14:24;100847.81;;;12.24;72.73
81033;BME280;70514;52.478;6.102;2024-03-23T11:17:08;100848.66;;;12.11;76.56
81033;BME280;70514;52.478;6.102;2024-03-23T11:19:35;100844.38;;;12.20;72.75
81033;BME280;70514;52.478;6.102;2024-03-23T11:22:05;100849.53;;;12.11;73.50
81033;BME280;70514;52.478;6.102;2024-03-23T11:24:32;100847.84;;;12.47;78.38
81033;BME280;70514;52.478;6.102;2024-03-23T11:26:59;100851.25;;;12.23;72.73
81033;BME280;70514;52.478;6.102;2024-03-23T11:29:28;100837.44;;;12.07;69.10
81033;BME280;70514;52.478;6.102;2024-03-23T11:31:56;100838.09;;;11.51;76.51
81033;BME280;70514;52.478;6.102;2024-03-23T11:34:22;100847.97;;;10.80;72.06
81033;BME280;70514;52.478;6.102;2024-03-23T11:36:48;100848.78;;;10.72;80.66
81033;BME280;70514;52.478;6.102;2024-03-23T11:39:20;100867.47;;;9.72;83.91
81033;BME280;70514;52.478;6.102;2024-03-23T11:41:50;100874.75;;;10.11;81.76
81033;BME280;70514;52.478;6.102;2024-03-23T11:44:22;100893.28;;;10.58;83.16
81033;BME280;70514;52.478;6.102;2024-03-23T11:46:49;100895.00;;;10.58;86.51
81033;BME280;70514;52.478;6.102;2024-03-23T11:49:34;100875.00;;;11.38;85.85
81033;BME280;70514;52.478;6.102;2024-03-23T11:52:07;100871.69;;;11.65;85.18
81033;BME280;70514;52.478;6.102;2024-03-23T11:54:36;100864.56;;;11.19;83.11
81033;BME280;70514;52.478;6.102;2024-03-23T11:57:04;100877.84;;;11.85;76.93
81033;BME280;70514;52.478;6.102;2024-03-23T11:59:41;100852.16;;;12.51;77.89
81033;BME280;70514;52.478;6.102;2024-03-23T12:02:11;100855.59;;;12.82;76.46
81033;BME280;70514;52.478;6.102;2024-03-23T12:04:41;100848.66;;;13.35;75.46
81033;BME280;70514;52.478;6.102;2024-03-23T12:07:30;100849.25;;;14.02;72.67
81033;BME280;70514;52.478;6.102;2024-03-23T12:10:03;100831.72;;;14.50;70.46
81033;BME280;70514;52.478;6.102;2024-03-23T12:12:30;100822.81;;;14.81;68.97
81033;BME280;70514;52.478;6.102;2024-03-23T12:15:06;100815.19;;;14.62;69.39
81033;BME280;70514;52.478;6.102;2024-03-23T12:17:35;100823.84;;;14.61;67.08
81033;BME280;70514;52.478;6.102;2024-03-23T12:20:02;100815.03;;;14.80;68.44
81033;BME280;70514;52.478;6.102;2024-03-23T12:22:29;100821.00;;;13.61;69.57
81033;BME280;70514;52.478;6.102;2024-03-23T12:24:58;100815.09;;;13.12;66.79
81033;BME280;70514;52.478;6.102;2024-03-23T12:27:25;100815.91;;;13.27;74.14
81033;BME280;70514;52.478;6.102;2024-03-23T12:29:51;100793.38;;;13.62;71.21
81033;BME280;70514;52.478;6.102;2024-03-23T12:32:18;100799.72;;;14.56;66.44
81033;BME280;70514;52.478;6.102;2024-03-23T12:34:45;100799.25;;;13.90;70.53
81033;BME280;70514;52.478;6.102;2024-03-23T12:37:13;100803.03;;;13.14;69.53
81033;BME280;70514;52.478;6.102;2024-03-23T12:39:41;100797.88;;;12.99;67.18
81033;BME280;70514;52.478;6.102;2024-03-23T12:42:07;100805.31;;;13.84;71.51
81033;BME280;70514;52.478;6.102;2024-03-23T12:44:34;100827.19;;;13.15;74.31
81033;BME280;70514;52.478;6.102;2024-03-23T12:47:01;100821.16;;;12.95;77.42
81033;BME280;70514;52.478;6.102;2024-03-23T12:49:28;100821.16;;;12.95;76.42
81033;BME280;70514;52.478;6.102;2024-03-23T12:51:56;100831.41;;;12.02;79.87
81033;BME280;70514;52.478;6.102;2024-03-23T12:54:23;100826.22;;;11.84;82.92
81033;BME280;70514;52.478;6.102;2024-03-23T12:56:50;100827.13;;;11.98;79.15
81033;BME280;70514;52.478;6.102;2024-03-23T12:59:16;100812.72;;;10.75;78.41
81033;BME280;70514;52.478;6.102;2024-03-23T13:01:45;100802.91;;;11.60;81.70
81033;BME280;70514;52.478;6.102;2024-03-23T13:04:11;100801.34;;;12.83;77.50
81033;BME280;70514;52.478;6.102;2024-03-23T13:06:38;100804.72;;;11.92;75.24
81033;BME280;70514;52.478;6.102;2024-03-23T13:09:05;100803.06;;;12.14;76.70
81033;BME280;70514;52.478;6.102;2024-03-23T13:11:33;100801.28;;;11.92;76.23
81033;BME280;70514;52.478;6.102;2024-03-23T13:13:59;100799.09;;;10.89;79.94
81033;BME280;70514;52.478;6.102;2024-03-23T13:16:26;100801.78;;;11.11;81.52
81033;BME280;70514;52.478;6.102;2024-03-23T13:18:53;100798.56;;;11.49;82.57
81033;BME280;70514;52.478;6.102;2024-03-23T13:21:19;100796.06;;;11.69;82.38
81033;BME280;70514;52.478;6.102;2024-03-23T13:23:47;100779.78;;;12.92;79.45
81033;BME280;70514;52.478;6.102;2024-03-23T13:26:14;100786.59;;;13.41;71.56
81033;BME280;70514;52.478;6.102;2024-03-23T13:28:41;100797.66;;;13.71;75.08
81033;BME280;70514;52.478;6.102;2024-03-23T13:31:08;100811.66;;;12.92;69.59
81033;BME280;70514;52.478;6.102;2024-03-23T13:33:34;100800.44;;;13.10;76.34
81033;BME280;70514;52.478;6.102;2024-03-23T13:36:01;100822.84;;;12.97;74.27
81033;BME280;70514;52.478;6.102;2024-03-23T13:38:29;100826.28;;;13.17;72.47
81033;BME280;70514;52.478;6.102;2024-03-23T13:40:58;100823.63;;;13.51;73.03
81033;BME280;70514;52.478;6.102;2024-03-23T13:43:26;100813.25;;;13.54;74.59
81033;BME280;70514;52.478;6.102;2024-03-23T13:45:53;100810.41;;;14.01;72.30
81033;BME280;70514;52.478;6.102;2024-03-23T13:48:21;100808.56;;;14.24;72.07
81033;BME280;70514;52.478;6.102;2024-03-23T13:51:08;100805.94;;;14.26;71.60
81033;BME280;70514;52.478;6.102;2024-03-23T13:53:35;100807.88;;;13.90;73.19
81033;BME280;70514;52.478;6.102;2024-03-23T13:56:02;100794.44;;;13.00;73.19